Time;durP1;ratioP1;P1;durP2;ratioP2;P2;SDS_P1;SDS_P2;PMS_P1;PMS_P2;Temp;Humidity;BMP_temperature;BMP_pressure;BME280_temperature;BME280_humidity;BME280_pressure;Samples;Min_cycle;Max_cycle;Signal;HPM_P1;HPM_P2
2021/01/14 00:01:19;;;;;;;2.28;1.70;;;0.50;78.00;;;;;;5056533;28;20405;-68
2021/01/14 00:03:44;;;;;;;3.80;2.00;;;0.40;78.30;;;;;;5056669;28;20024;-68
2021/01/14 00:06:11;;;;;;;6.82;2.30;;;0.40;78.60;;;;;;5056632;28;20040;-68
2021/01/14 00:08:36;;;;;;;3.63;1.70;;;0.40;78.70;;;;;;5056538;28;20033;-68
2021/01/14 00:11:02;;;;;;;2.65;1.50;;;0.50;78.30;;;;;;5056775;28;20112;-68
2021/01/14 00:13:28;;;;;;;5.78;2.00;;;0.50;78.00;;;;;;5056424;28;20290;-68
2021/01/14 00:15:53;;;;;;;4.22;1.58;;;0.50;77.70;;;;;;5056407;28;20021;-68
2021/01/14 00:18:19;;;;;;;3.00;1.90;;;0.40;77.50;;;;;;5056628;28;20096;-69
2021/01/14 00:20:45;;;;;;;3.20;2.00;;;0.30;77.60;;;;;;5056672;28;20025;-69
2021/01/14 00:23:10;;;;;;;5.50;2.03;;;0.30;77.90;;;;;;5056449;28;20405;-68
2021/01/14 00:25:36;;;;;;;6.65;2.67;;;0.20;78.60;;;;;;5056389;28;20056;-69
2021/01/14 00:28:01;;;;;;;6.18;2.20;;;0.20;79.10;;;;;;5056695;28;20032;-69
2021/01/14 00:30:31;;;;;;;4.50;2.20;;;0.20;79.10;;;;;;5056298;28;20317;-67
2021/01/14 00:32:59;;;;;;;3.88;2.25;;;0.20;79.00;;;;;;5056548;28;20079;-67
2021/01/14 00:35:28;;;;;;;3.35;2.33;;;0.10;79.30;;;;;;5056195;28;20028;-67
2021/01/14 00:37:55;;;;;;;5.88;2.65;;;0.10;79.10;;;;;;5056571;28;20344;-66
2021/01/14 00:40:25;;;;;;;3.05;2.20;;;0.00;79.00;;;;;;5056430;28;20289;-66
2021/01/14 00:43:00;;;;;;;4.43;2.88;;;0.00;78.90;;;;;;5060157;28;20488;-66
2021/01/14 00:45:30;;;;;;;5.18;2.38;;;0.00;79.10;;;;;;5060263;28;20076;-67
2021/01/14 00:47:57;;;;;;;4.03;2.75;;;0.00;78.90;;;;;;5060547;28;20079;-67
2021/01/14 00:50:23;;;;;;;3.40;2.58;;;-0.10;79.20;;;;;;5060304;28;20025;-66
2021/01/14 00:52:49;;;;;;;5.63;2.45;;;-0.10;79.30;;;;;;5060021;28;20024;-66
2021/01/14 00:55:16;;;;;;;5.45;2.30;;;-0.10;79.60;;;;;;5060177;28;20033;-66
2021/01/14 00:57:42;;;;;;;3.97;2.70;;;-0.10;79.80;;;;;;5059932;28;20017;-66
2021/01/14 01:00:10;;;;;;;5.75;2.70;;;-0.10;79.80;;;;;;5059802;28;20031;-67
2021/01/14 01:02:44;;;;;;;3.95;2.50;;;-0.10;80.10;;;;;;5060296;28;20025;-66
2021/01/14 01:05:11;;;;;;;4.82;2.47;;;0.00;80.00;;;;;;5058676;28;20037;-68
2021/01/14 01:07:38;;;;;;;4.88;3.20;;;0.00;79.90;;;;;;5059752;28;20078;-67
2021/01/14 01:10:06;;;;;;;4.25;2.72;;;0.00;79.80;;;;;;5059862;28;20065;-67
2021/01/14 01:12:32;;;;;;;7.03;3.20;;;0.00;79.90;;;;;;5059558;28;20017;-66
2021/01/14 01:14:58;;;;;;;4.05;2.65;;;-0.10;79.90;;;;;;5059388;28;20040;-67
2021/01/14 01:17:29;;;;;;;6.03;2.88;;;-0.20;80.10;;;;;;5058536;28;20025;-66
2021/01/14 01:19:55;;;;;;;5.10;2.60;;;-0.20;80.50;;;;;;5059527;28;20025;-66
2021/01/14 01:22:20;;;;;;;5.20;2.60;;;-0.20;81.00;;;;;;5059450;28;20013;-66
2021/01/14 01:24:46;;;;;;;6.82;3.08;;;-0.20;80.70;;;;;;5059613;28;20040;-66
2021/01/14 01:27:11;;;;;;;5.40;2.63;;;-0.20;80.90;;;;;;5059241;28;20395;-66
2021/01/14 01:29:37;;;;;;;5.15;2.80;;;-0.20;80.40;;;;;;5059432;28;20064;-66
2021/01/14 01:32:03;;;;;;;3.78;2.58;;;-0.20;80.80;;;;;;5059857;28;20029;-66
2021/01/14 01:34:30;;;;;;;3.92;2.92;;;-0.10;80.80;;;;;;5058975;28;20029;-68
2021/01/14 01:36:55;;;;;;;5.28;2.60;;;-0.10;80.80;;;;;;5059465;28;20032;-69
2021/01/14 01:39:21;;;;;;;4.93;2.90;;;-0.10;80.10;;;;;;5059294;28;20025;-68
2021/01/14 01:41:46;;;;;;;3.58;2.60;;;-0.20;81.50;;;;;;5059103;28;20417;-68
2021/01/14 01:44:13;;;;;;;5.18;3.08;;;-0.20;81.30;;;;;;5057894;28;20086;-68
2021/01/14 01:46:39;;;;;;;5.50;3.08;;;-0.20;81.10;;;;;;5059054;28;20325;-68
2021/01/14 01:49:05;;;;;;;4.45;3.25;;;-0.20;81.50;;;;;;5058960;28;20075;-68
2021/01/14 01:51:38;;;;;;;7.57;3.72;;;-0.20;81.30;;;;;;5058540;28;20325;-68
2021/01/14 01:54:05;;;;;;;4.30;2.42;;;-0.20;81.60;;;;;;5057995;28;20029;-68
2021/01/14 01:56:31;;;;;;;4.72;2.53;;;-0.20;81.10;;;;;;5059240;28;20025;-68
2021/01/14 01:58:57;;;;;;;4.90;2.28;;;0.00;79.80;;;;;;5059218;28;20037;-68
2021/01/14 02:01:25;;;;;;;4.28;2.40;;;0.10;78.50;;;;;;5058712;28;20048;-68
2021/01/14 02:03:50;;;;;;;5.10;2.35;;;0.30;77.90;;;;;;5058641;28;20025;-68
2021/01/14 02:06:17;;;;;;;3.85;2.00;;;0.30;77.10;;;;;;5058984;28;20025;-69
2021/01/14 02:09:01;;;;;;;4.78;1.95;;;0.30;76.80;;;;;;5057516;28;20040;-69
2021/01/14 02:11:38;;;;;;;3.50;2.10;;;0.30;77.20;;;;;;5059117;28;20029;-68
2021/01/14 02:14:13;;;;;;;4.40;2.85;;;0.20;78.10;;;;;;5058724;28;20036;-68
2021/01/14 02:16:43;;;;;;;4.97;3.22;;;0.10;79.00;;;;;;5058715;28;20021;-68
2021/01/14 02:19:36;;;;;;;5.85;3.00;;;0.00;79.50;;;;;;5058573;28;20052;-68
2021/01/14 02:22:09;;;;;;;4.13;2.72;;;-0.10;79.40;;;;;;5058348;28;20360;-68
2021/01/14 02:24:43;;;;;;;6.28;3.40;;;-0.20;79.60;;;;;;5058480;28;20378;-68
2021/01/14 02:27:09;;;;;;;4.15;2.53;;;-0.20;79.70;;;;;;5058241;28;20053;-68
2021/01/14 02:29:36;;;;;;;4.35;2.90;;;-0.30;80.20;;;;;;5057161;28;20044;-68
2021/01/14 02:32:03;;;;;;;5.07;2.95;;;-0.40;80.70;;;;;;5058187;28;20024;-68
2021/01/14 02:34:29;;;;;;;4.40;2.90;;;-0.50;81.30;;;;;;5057968;28;20325;-68
2021/01/14 02:36:55;;;;;;;5.82;3.20;;;-0.60;81.50;;;;;;5058204;28;20017;-68
2021/01/14 02:39:20;;;;;;;5.05;2.95;;;-0.60;81.90;;;;;;5057952;28;20025;-68
2021/01/14 02:41:46;;;;;;;5.00;3.00;;;-0.60;81.90;;;;;;5058176;28;20028;-68
2021/01/14 02:44:13;;;;;;;6.82;3.20;;;-0.70;81.90;;;;;;5058076;28;20044;-68
2021/01/14 02:46:38;;;;;;;5.07;2.60;;;-0.70;81.60;;;;;;5056824;28;20029;-68
2021/01/14 02:49:09;;;;;;;5.72;2.90;;;-0.70;82.00;;;;;;5057761;28;20119;-68
2021/01/14 02:51:54;;;;;;;5.63;2.65;;;-0.70;82.10;;;;;;5056705;28;20025;-68
2021/01/14 02:54:21;;;;;;;6.10;4.35;;;-0.70;82.30;;;;;;5057708;28;20325;-66
2021/01/14 02:56:50;;;;;;;7.70;4.45;;;-0.70;81.50;;;;;;5057961;28;20352;-66
2021/01/14 02:59:16;;;;;;;8.13;5.13;;;-0.50;80.70;;;;;;5057796;28;20068;-68
2021/01/14 03:01:41;;;;;;;7.88;4.45;;;-0.20;79.60;;;;;;5057568;28;20017;-67
2021/01/14 03:04:10;;;;;;;6.75;4.95;;;-0.20;79.50;;;;;;5056083;28;20052;-66
2021/01/14 03:06:36;;;;;;;7.97;3.78;;;-0.30;79.40;;;;;;5057455;28;20058;-67
2021/01/14 03:09:02;;;;;;;5.63;3.70;;;-0.40;80.10;;;;;;5057635;28;20037;-66
2021/01/14 03:11:32;;;;;;;6.53;3.65;;;-0.50;80.70;;;;;;5057685;28;20412;-66
2021/01/14 03:13:58;;;;;;;5.65;2.90;;;-0.70;81.50;;;;;;5057217;28;20025;-68
2021/01/14 03:16:24;;;;;;;3.70;2.63;;;-0.70;82.20;;;;;;5057294;28;20020;-68
2021/01/14 03:18:51;;;;;;;6.10;2.70;;;-0.80;82.20;;;;;;5057522;28;20321;-68
2021/01/14 03:21:24;;;;;;;3.40;2.40;;;-0.80;82.60;;;;;;5057280;28;20033;-68
2021/01/14 03:23:50;;;;;;;5.32;3.90;;;-0.80;82.40;;;;;;5057140;28;20025;-68
2021/01/14 03:26:18;;;;;;;4.72;2.47;;;-0.70;82.40;;;;;;5057120;28;20057;-68
2021/01/14 03:28:44;;;;;;;4.25;3.55;;;-0.70;82.10;;;;;;5057111;28;20033;-68
2021/01/14 03:31:10;;;;;;;3.70;2.50;;;-0.70;82.00;;;;;;5057164;28;20025;-68
2021/01/14 03:33:37;;;;;;;6.53;2.63;;;-0.70;82.00;;;;;;5055855;28;20025;-68
2021/01/14 03:36:05;;;;;;;4.07;2.78;;;-0.50;81.90;;;;;;5057202;28;20021;-68
2021/01/14 03:38:31;;;;;;;4.03;3.35;;;-0.50;82.10;;;;;;5056923;28;20017;-68
2021/01/14 03:40:58;;;;;;;4.25;3.10;;;-0.50;82.30;;;;;;5056884;28;20056;-69
2021/01/14 03:43:24;;;;;;;4.55;3.10;;;-0.40;81.90;;;;;;5057096;28;20017;-68
2021/01/14 03:45:49;;;;;;;4.78;3.40;;;-0.40;81.40;;;;;;5055750;28;20094;-68
2021/01/14 03:48:15;;;;;;;5.97;3.78;;;-0.30;81.50;;;;;;5056821;28;20025;-68
2021/01/14 03:50:41;;;;;;;7.75;3.58;;;-0.30;81.70;;;;;;5056688;28;20032;-69
2021/01/14 03:53:07;;;;;;;3.95;2.85;;;-0.40;81.60;;;;;;5056681;28;20025;-68
2021/01/14 03:55:33;;;;;;;4.55;2.75;;;-0.40;81.90;;;;;;5056795;28;20112;-69
2021/01/14 03:57:58;;;;;;;4.35;2.75;;;-0.30;82.00;;;;;;5056670;28;20040;-68
2021/01/14 04:00:24;;;;;;;5.15;2.83;;;-0.30;82.20;;;;;;5056646;28;20036;-68
2021/01/14 04:02:49;;;;;;;4.07;2.90;;;-0.30;81.60;;;;;;5056602;28;20400;-68
2021/01/14 04:05:15;;;;;;;6.47;3.00;;;-0.30;81.90;;;;;;5056836;28;20120;-68
2021/01/14 04:07:42;;;;;;;5.18;3.28;;;-0.30;81.60;;;;;;5056674;28;20028;-68
2021/01/14 04:10:08;;;;;;;5.43;3.13;;;-0.20;81.30;;;;;;5056810;28;20424;-68
2021/01/14 04:12:34;;;;;;;4.68;2.70;;;-0.20;81.50;;;;;;5056757;28;20368;-68
2021/01/14 04:14:59;;;;;;;4.10;2.78;;;-0.20;81.70;;;;;;5056405;28;20025;-68
2021/01/14 04:17:28;;;;;;;4.45;3.20;;;-0.10;81.60;;;;;;5060346;28;20017;-68
2021/01/14 04:19:54;;;;;;;4.00;3.25;;;-0.10;82.50;;;;;;5060835;28;20420;-68
2021/01/14 04:22:20;;;;;;;5.43;3.47;;;0.00;82.60;;;;;;5059578;28;20017;-68
2021/01/14 04:24:45;;;;;;;5.80;3.25;;;0.00;82.50;;;;;;5059443;28;20044;-68
2021/01/14 04:27:11;;;;;;;5.45;3.10;;;0.00;83.00;;;;;;5060437;28;20053;-68
2021/01/14 04:29:37;;;;;;;4.28;3.08;;;0.10;82.90;;;;;;5060441;28;20431;-67
2021/01/14 04:32:03;;;;;;;6.32;3.60;;;0.10;82.50;;;;;;5060718;28;20076;-68
2021/01/14 04:34:29;;;;;;;5.45;3.80;;;0.20;82.70;;;;;;5060653;28;20413;-69
2021/01/14 04:37:05;;;;;;;5.97;4.50;;;0.30;82.40;;;;;;5060501;28;20028;-68
2021/01/14 04:39:30;;;;;;;5.80;3.88;;;0.40;82.30;;;;;;5060588;28;20033;-68
2021/01/14 04:41:58;;;;;;;6.28;4.30;;;0.50;82.40;;;;;;5060498;28;20317;-69
2021/01/14 04:44:28;;;;;;;9.93;4.63;;;0.50;82.20;;;;;;5060371;28;20025;-68
2021/01/14 04:47:06;;;;;;;9.32;4.45;;;0.60;82.40;;;;;;5060203;28;20059;-68
2021/01/14 04:49:32;;;;;;;7.28;5.57;;;0.60;82.40;;;;;;5060016;28;20428;-68
2021/01/14 04:52:04;;;;;;;9.77;5.40;;;0.70;81.70;;;;;;5060017;28;20029;-68
2021/01/14 04:54:35;;;;;;;6.93;5.45;;;0.70;81.30;;;;;;5059750;28;20028;-68
2021/01/14 04:57:18;;;;;;;6.82;5.22;;;0.80;80.80;;;;;;5060242;28;20025;-69
2021/01/14 04:59:50;;;;;;;7.10;5.50;;;0.90;81.60;;;;;;5059882;28;20031;-67
2021/01/14 05:02:25;;;;;;;8.10;5.25;;;0.90;81.70;;;;;;5060191;28;20028;-68
2021/01/14 05:04:52;;;;;;;13.38;5.80;;;0.90;81.80;;;;;;5059790;28;20033;-68
2021/01/14 05:07:33;;;;;;;9.13;6.25;;;0.90;81.80;;;;;;5059773;28;20029;-68
2021/01/14 05:10:03;;;;;;;9.55;6.60;;;0.90;81.10;;;;;;5059696;28;20036;-69
2021/01/14 05:12:33;;;;;;;11.23;7.10;;;0.90;81.20;;;;;;5059806;28;20047;-68
2021/01/14 05:15:03;;;;;;;97.65;50.05;;;0.90;81.50;;;;;;5059484;28;20052;-68
2021/01/14 05:17:29;;;;;;;31.20;17.30;;;1.00;81.00;;;;;;5059567;28;20044;-68
2021/01/14 05:19:55;;;;;;;59.15;32.22;;;1.10;80.00;;;;;;5059708;28;20032;-68
2021/01/14 05:22:25;;;;;;;65.82;22.92;;;1.30;79.20;;;;;;5059448;28;20035;-69
2021/01/14 05:25:09;;;;;;;39.15;15.40;;;1.40;79.00;;;;;;5059367;28;20444;-69
2021/01/14 05:27:35;;;;;;;22.05;13.02;;;1.40;79.20;;;;;;5059031;28;20126;-68
2021/01/14 05:30:09;;;;;;;18.08;12.10;;;1.40;79.10;;;;;;5059334;28;20178;-68
2021/01/14 05:32:39;;;;;;;19.02;13.38;;;1.40;78.90;;;;;;5059617;28;20380;-68
2021/01/14 05:35:07;;;;;;;21.42;15.13;;;1.30;79.50;;;;;;5059107;28;20021;-69
2021/01/14 05:37:43;;;;;;;16.75;10.68;;;1.10;80.00;;;;;;5059202;28;20386;-68
2021/01/14 05:40:12;;;;;;;;;;;1.00;80.50;;;;;;5059582;28;20024;-68
2021/01/14 05:42:39;;;;;;;10.38;7.60;;;0.90;80.60;;;;;;5059088;28;19940;-68
2021/01/14 05:45:21;;;;;;;9.57;6.55;;;0.70;81.20;;;;;;5059125;28;20027;-68
2021/01/14 05:47:47;;;;;;;9.82;5.80;;;0.60;81.40;;;;;;5059302;28;20409;-68
2021/01/14 05:50:13;;;;;;;8.88;5.05;;;0.50;81.10;;;;;;5058946;28;20025;-69
2021/01/14 05:52:41;;;;;;;8.95;6.20;;;0.50;81.10;;;;;;5059208;28;20024;-69
2021/01/14 05:55:08;;;;;;;8.93;6.35;;;0.40;80.90;;;;;;5058576;28;20041;-68
2021/01/14 05:57:38;;;;;;;10.95;6.05;;;0.40;81.20;;;;;;5058837;28;20032;-68
2021/01/14 06:00:12;;;;;;;9.02;6.15;;;0.40;80.90;;;;;;5058740;28;20029;-68
2021/01/14 06:02:38;;;;;;;8.77;5.70;;;0.40;81.20;;;;;;5058712;28;20049;-68
2021/01/14 06:05:28;;;;;;;14.95;5.97;;;0.40;80.90;;;;;;5058901;28;20033;-68
2021/01/14 06:07:54;;;;;;;11.40;6.03;;;0.40;79.80;;;;;;5058957;28;20101;-68
2021/01/14 06:10:37;;;;;;;11.35;6.47;;;0.50;80.20;;;;;;5057532;28;20029;-68
2021/01/14 06:13:03;;;;;;;14.70;6.30;;;0.50;79.80;;;;;;5058580;28;20017;-68
2021/01/14 06:15:28;;;;;;;8.18;5.95;;;0.60;79.50;;;;;;5058434;28;20033;-68
2021/01/14 06:17:55;;;;;;;9.20;5.55;;;0.70;79.40;;;;;;5058424;28;20052;-68
2021/01/14 06:20:20;;;;;;;10.15;6.00;;;0.80;78.80;;;;;;5058513;28;20391;-68
2021/01/14 06:22:46;;;;;;;11.98;7.00;;;0.80;79.00;;;;;;5058305;28;20104;-69
2021/01/14 06:25:13;;;;;;;9.05;5.90;;;0.80;78.90;;;;;;5058300;28;20025;-68
2021/01/14 06:27:38;;;;;;;10.60;5.63;;;0.90;78.70;;;;;;5058134;28;20122;-69
2021/01/14 06:30:08;;;;;;;9.85;6.63;;;0.90;78.60;;;;;;5058195;28;20514;-69
2021/01/14 06:32:37;;;;;;;10.38;6.50;;;0.90;79.50;;;;;;5058446;28;20017;-68
2021/01/14 06:35:07;;;;;;;8.57;5.75;;;0.90;79.40;;;;;;5058022;28;20108;-69
2021/01/14 06:37:37;;;;;;;10.82;5.57;;;0.90;79.40;;;;;;5058373;28;20021;-68
2021/01/14 06:40:05;;;;;;;9.73;5.60;;;0.90;79.20;;;;;;5057622;28;20340;-68
2021/01/14 06:42:37;;;;;;;9.93;5.80;;;0.90;79.30;;;;;;5056923;28;20108;-68
2021/01/14 06:45:13;;;;;;;7.93;5.55;;;0.90;79.50;;;;;;5058129;28;20025;-68
2021/01/14 06:47:46;;;;;;;7.60;5.70;;;0.80;79.70;;;;;;5058541;28;20021;-69
2021/01/14 06:50:27;;;;;;;6.60;4.50;;;0.90;79.00;;;;;;5057913;28;20028;-68
2021/01/14 06:52:57;;;;;;;8.32;4.60;;;0.90;78.40;;;;;;5057718;28;20021;-68
2021/01/14 06:55:24;;;;;;;6.18;3.97;;;1.00;78.00;;;;;;5057550;28;20167;-68
2021/01/14 06:58:11;;;;;;;5.85;4.05;;;1.10;77.10;;;;;;5057960;28;20029;-69
2021/01/14 07:00:46;;;;;;;7.47;4.90;;;1.10;76.60;;;;;;5057679;28;20033;-68
2021/01/14 07:03:20;;;;;;;5.43;4.10;;;1.20;76.60;;;;;;5057622;28;20102;-68
2021/01/14 07:05:51;;;;;;;6.20;3.80;;;1.20;76.60;;;;;;5057537;28;20055;-68
2021/01/14 07:08:49;;;;;;;5.97;4.18;;;1.20;76.40;;;;;;5057739;28;20329;-68
2021/01/14 07:11:17;;;;;;;4.53;3.28;;;1.30;75.80;;;;;;5058045;28;20056;-69
2021/01/14 07:14:11;;;;;;;6.97;3.40;;;1.40;74.90;;;;;;5057265;28;20317;-68
2021/01/14 07:16:41;;;;;;;5.05;3.30;;;1.50;73.90;;;;;;5057278;28;20439;-68
2021/01/14 07:19:07;;;;;;;5.78;3.67;;;1.60;73.20;;;;;;5057222;28;20025;-69
2021/01/14 07:21:43;;;;;;;7.50;4.25;;;1.60;73.00;;;;;;5057189;28;20036;-68
2021/01/14 07:24:18;;;;;;;5.55;3.70;;;1.70;74.00;;;;;;5057103;28;20029;-69
2021/01/14 07:26:50;;;;;;;7.10;4.00;;;1.70;73.80;;;;;;5057139;28;20049;-68
2021/01/14 07:29:17;;;;;;;6.78;3.92;;;1.80;74.80;;;;;;5057542;28;20032;-69
2021/01/14 07:31:50;;;;;;;7.28;4.63;;;1.90;75.00;;;;;;5057077;28;20029;-69
2021/01/14 07:34:35;;;;;;;7.57;4.93;;;2.00;75.70;;;;;;5056795;28;20421;-69
2021/01/14 07:37:02;;;;;;;8.02;5.35;;;2.20;74.70;;;;;;5057292;28;20033;-69
2021/01/14 07:39:50;;;;;;;8.43;5.50;;;2.30;74.80;;;;;;5057273;28;20021;-68
2021/01/14 07:42:33;;;;;;;8.93;5.55;;;2.50;76.00;;;;;;5056849;28;20078;-68
2021/01/14 07:45:14;;;;;;;6.80;4.63;;;2.60;74.30;;;;;;5057048;28;20056;-68
2021/01/14 07:47:40;;;;;;;9.13;4.95;;;2.60;73.70;;;;;;5057166;28;20094;-69
2021/01/14 07:50:26;;;;;;;6.63;4.45;;;2.60;72.90;;;;;;5056709;28;20111;-69
2021/01/14 07:52:53;;;;;;;6.45;4.50;;;2.70;73.00;;;;;;5056879;28;20025;-68
2021/01/14 07:55:39;;;;;;;6.78;4.90;;;2.70;72.70;;;;;;5056498;28;20048;-69
2021/01/14 07:58:21;;;;;;;6.60;4.93;;;2.80;73.60;;;;;;5057049;28;20053;-69
2021/01/14 08:01:08;;;;;;;8.40;5.43;;;3.00;73.20;;;;;;5056627;28;20060;-69
2021/01/14 08:03:35;;;;;;;9.85;6.10;;;3.10;71.30;;;;;;5056852;28;20086;-69
2021/01/14 08:06:19;;;;;;;6.97;5.28;;;3.10;71.50;;;;;;5056507;28;20021;-69
2021/01/14 08:09:01;;;;;;;10.13;7.45;;;3.10;72.00;;;;;;5056610;28;20025;-68
2021/01/14 08:11:30;;;;;;;8.27;6.60;;;3.20;71.50;;;;;;5056561;28;20029;-69
2021/01/14 08:14:03;;;;;;;8.00;5.65;;;3.10;71.30;;;;;;5056487;28;20033;-69
2021/01/14 08:16:45;;;;;;;7.88;5.95;;;3.10;71.40;;;;;;5056773;28;20025;-69
2021/01/14 08:19:20;;;;;;;8.43;6.20;;;3.30;70.80;;;;;;5056574;28;20148;-69
2021/01/14 08:21:48;;;;;;;7.13;4.82;;;3.30;71.50;;;;;;5056518;28;20043;-69
2021/01/14 08:24:41;;;;;;;8.32;5.90;;;3.30;69.50;;;;;;5056300;28;20031;-69
2021/01/14 08:27:11;;;;;;;8.70;5.22;;;3.30;71.20;;;;;;5056283;28;20094;-69
2021/01/14 08:29:46;;;;;;;8.40;5.70;;;3.50;70.70;;;;;;5056425;28;20028;-69
2021/01/14 08:32:34;;;;;;;8.93;5.10;;;3.60;69.90;;;;;;5056659;28;20166;-69
2021/01/14 08:35:02;;;;;;;8.23;5.60;;;3.70;68.90;;;;;;5055205;28;20037;-69
2021/01/14 08:37:32;;;;;;;8.20;5.45;;;3.70;69.40;;;;;;5056236;28;20439;-68
2021/01/14 08:40:09;;;;;;;6.88;4.90;;;3.70;69.70;;;;;;5056243;28;20029;-69
2021/01/14 08:42:40;;;;;;;6.90;5.07;;;3.60;68.80;;;;;;5056566;28;20021;-68
2021/01/14 08:45:09;;;;;;;6.93;4.95;;;3.60;69.80;;;;;;5056405;28;20033;-69
2021/01/14 08:47:56;;;;;;;9.75;5.53;;;3.60;68.90;;;;;;5056231;28;20021;-69
2021/01/14 08:50:42;;;;;;;7.47;5.40;;;3.60;68.70;;;;;;5056433;28;20037;-69
2021/01/14 08:53:17;;;;;;;8.27;5.23;;;3.80;69.20;;;;;;5056229;28;20021;-68
2021/01/14 08:55:44;;;;;;;7.97;4.97;;;3.80;67.60;;;;;;5055897;28;20033;-69
2021/01/14 08:58:10;;;;;;;7.05;4.95;;;3.80;66.50;;;;;;5056207;28;20036;-69
2021/01/14 09:00:37;;;;;;;8.50;5.38;;;3.70;68.20;;;;;;5056073;28;20079;-69
2021/01/14 09:03:04;;;;;;;5.93;4.90;;;3.90;67.90;;;;;;5057900;28;20021;-69
2021/01/14 09:05:29;;;;;;;6.15;4.57;;;4.00;67.20;;;;;;5059809;28;20029;-67
2021/01/14 09:08:08;;;;;;;9.95;5.78;;;4.10;66.20;;;;;;5059817;28;20075;-66
2021/01/14 09:10:39;;;;;;;19.63;5.25;;;4.10;66.30;;;;;;5059810;28;20384;-69
2021/01/14 09:13:09;;;;;;;6.95;5.40;;;4.20;65.80;;;;;;5059622;28;20064;-67
2021/01/14 09:15:35;;;;;;;6.30;5.15;;;4.20;66.90;;;;;;5059576;28;20029;-67
2021/01/14 09:18:01;;;;;;;7.57;5.03;;;4.40;66.20;;;;;;5059631;28;20054;-68
2021/01/14 09:20:29;;;;;;;7.07;5.28;;;4.40;66.10;;;;;;5058424;28;20108;-69
2021/01/14 09:23:17;;;;;;;8.15;4.80;;;4.60;64.40;;;;;;5059747;28;20025;-67
2021/01/14 09:25:47;;;;;;;6.85;4.68;;;4.60;64.20;;;;;;5059160;28;20048;-68
2021/01/14 09:28:14;;;;;;;7.35;4.88;;;4.60;65.40;;;;;;5060017;28;20349;-68
2021/01/14 09:30:40;;;;;;;5.90;4.78;;;4.60;65.20;;;;;;5059265;28;20100;-67
2021/01/14 09:33:06;;;;;;;6.57;4.88;;;4.60;64.30;;;;;;5059278;28;20032;-66
2021/01/14 09:35:32;;;;;;;8.27;5.25;;;4.60;64.40;;;;;;5059094;28;20021;-67
2021/01/14 09:37:59;;;;;;;7.38;4.68;;;4.60;64.30;;;;;;5059266;28;20028;-67
2021/01/14 09:40:25;;;;;;;7.63;3.95;;;4.60;64.30;;;;;;5059379;28;20017;-67
2021/01/14 09:42:52;;;;;;;7.55;5.28;;;4.60;64.40;;;;;;5059465;28;20075;-67
2021/01/14 09:45:19;;;;;;;6.13;4.65;;;4.70;64.50;;;;;;5057969;28;20413;-67
2021/01/14 09:47:48;;;;;;;6.40;4.53;;;4.90;64.40;;;;;;5059351;28;20036;-67
2021/01/14 09:50:15;;;;;;;7.00;4.45;;;5.10;64.60;;;;;;5058884;28;20540;-67
2021/01/14 09:52:40;;;;;;;11.80;8.07;;;5.30;63.20;;;;;;5059126;28;20329;-69
2021/01/14 09:55:10;;;;;;;8.70;5.97;;;5.40;62.50;;;;;;5058668;28;20040;-69
2021/01/14 09:57:39;;;;;;;12.88;7.40;;;5.50;62.80;;;;;;5058830;28;20029;-69
2021/01/14 10:00:06;;;;;;;10.18;5.68;;;5.80;61.70;;;;;;5058892;28;20021;-69
2021/01/14 10:02:37;;;;;;;7.18;5.20;;;5.80;60.80;;;;;;5058761;28;20079;-67
2021/01/14 10:05:13;;;;;;;6.55;5.10;;;5.70;63.60;;;;;;5058652;28;20033;-67
2021/01/14 10:07:45;;;;;;;8.30;5.18;;;5.70;64.80;;;;;;5058510;28;20025;-69
2021/01/14 10:10:11;;;;;;;6.28;5.10;;;5.80;62.80;;;;;;5045225;28;20039;-69
2021/01/14 10:12:37;;;;;;;6.30;4.80;;;6.00;62.70;;;;;;5053976;28;20033;-69
2021/01/14 10:15:13;;;;;;;7.05;5.05;;;6.40;60.00;;;;;;5057934;28;20075;-69
2021/01/14 10:17:41;;;;;;;7.88;4.90;;;7.20;61.20;;;;;;5058769;28;20059;-69
2021/01/14 10:20:09;;;;;;;6.55;4.93;;;7.70;57.70;;;;;;5058668;28;20021;-69
2021/01/14 10:22:48;;;;;;;5.32;4.07;;;8.50;55.30;;;;;;5058295;28;20024;-70
2021/01/14 10:25:14;;;;;;;5.25;3.78;;;9.20;54.10;;;;;;5058345;28;20107;-69
2021/01/14 10:27:40;;;;;;;5.30;3.70;;;9.60;50.80;;;;;;5058118;28;20057;-67
2021/01/14 10:30:22;;;;;;;5.05;3.63;;;10.20;49.00;;;;;;5058249;28;20437;-67
2021/01/14 10:32:48;;;;;;;5.80;4.30;;;10.60;48.40;;;;;;5058171;28;20033;-67
2021/01/14 10:35:26;;;;;;;6.75;4.90;;;11.10;49.00;;;;;;5058294;28;20100;-67
2021/01/14 10:38:13;;;;;;;9.57;5.47;;;11.20;48.10;;;;;;5058080;28;20056;-67
2021/01/14 10:40:45;;;;;;;6.50;4.50;;;11.40;49.00;;;;;;5058022;28;20024;-67
2021/01/14 10:43:11;;;;;;;6.15;5.25;;;11.30;48.40;;;;;;5058032;28;20031;-67
2021/01/14 10:45:39;;;;;;;6.43;4.57;;;11.30;49.10;;;;;;5057900;28;20025;-67
2021/01/14 10:48:16;;;;;;;8.02;5.32;;;11.40;47.80;;;;;;5057918;28;20112;-67
2021/01/14 10:50:44;;;;;;;8.90;5.97;;;11.20;49.20;;;;;;5057873;28;20025;-67
2021/01/14 10:53:10;;;;;;;7.65;5.68;;;11.20;48.80;;;;;;5057794;28;20298;-69
2021/01/14 10:55:36;;;;;;;7.35;4.10;;;11.10;48.60;;;;;;5057579;28;20052;-67
2021/01/14 10:58:06;;;;;;;7.55;4.53;;;10.90;47.50;;;;;;5057750;28;20079;-68
2021/01/14 11:00:39;;;;;;;7.90;5.28;;;10.40;48.00;;;;;;5057661;28;20373;-69
2021/01/14 11:03:14;;;;;;;6.40;4.97;;;9.80;52.30;;;;;;5057541;28;20413;-69
2021/01/14 11:05:55;;;;;;;6.93;4.65;;;9.60;51.30;;;;;;5057597;28;20032;-67
2021/01/14 11:08:46;;;;;;;6.22;4.57;;;9.60;52.80;;;;;;5057586;28;20472;-67
2021/01/14 11:11:15;;;;;;;5.85;4.40;;;9.60;51.60;;;;;;5057499;28;20029;-68
2021/01/14 11:13:46;;;;;;;5.97;4.22;;;9.50;50.60;;;;;;5057275;28;20072;-67
2021/01/14 11:16:33;;;;;;;6.32;4.10;;;9.70;52.50;;;;;;5057313;28;20017;-67
2021/01/14 11:18:59;;;;;;;5.93;4.20;;;10.00;50.70;;;;;;5057224;28;20037;-67
2021/01/14 11:21:30;;;;;;;8.55;4.43;;;10.90;48.20;;;;;;5057456;28;20017;-67
2021/01/14 11:23:56;;;;;;;5.57;4.38;;;11.20;47.90;;;;;;5057208;28;20104;-67
2021/01/14 11:26:23;;;;;;;5.68;4.70;;;11.50;47.60;;;;;;5056923;28;20460;-67
2021/01/14 11:28:50;;;;;;;6.07;3.90;;;11.40;46.40;;;;;;5057250;28;20029;-67
2021/01/14 11:31:17;;;;;;;6.18;5.00;;;11.80;46.20;;;;;;5057102;28;20056;-67
2021/01/14 11:33:44;;;;;;;5.68;4.43;;;12.20;46.00;;;;;;5055826;28;20067;-67
2021/01/14 11:36:11;;;;;;;5.18;4.47;;;12.60;45.30;;;;;;5057524;28;20071;-67
2021/01/14 11:38:37;;;;;;;6.80;4.68;;;12.70;45.50;;;;;;5057513;28;20028;-67
2021/01/14 11:41:03;;;;;;;6.10;4.22;;;12.50;44.80;;;;;;5056976;28;20025;-67
2021/01/14 11:43:29;;;;;;;5.68;4.63;;;12.50;46.50;;;;;;5057014;28;20017;-67
2021/01/14 11:45:55;;;;;;;6.20;4.55;;;12.50;45.80;;;;;;5056867;28;20029;-67
2021/01/14 11:48:21;;;;;;;6.80;4.88;;;12.90;45.70;;;;;;5057118;28;20111;-67
2021/01/14 11:50:47;;;;;;;5.03;4.50;;;12.60;44.40;;;;;;5056766;28;20025;-67
2021/01/14 11:53:13;;;;;;;5.40;3.95;;;12.80;45.00;;;;;;5055612;28;20025;-67
2021/01/14 11:55:39;;;;;;;5.38;4.22;;;12.90;45.30;;;;;;5056486;28;20040;-67
2021/01/14 11:58:05;;;;;;;5.28;4.45;;;13.00;44.80;;;;;;5056751;28;20076;-67
2021/01/14 12:00:31;;;;;;;5.03;4.10;;;13.30;44.20;;;;;;5056673;28;20021;-67
2021/01/14 12:02:57;;;;;;;6.45;4.95;;;13.30;43.10;;;;;;5056629;28;20017;-67
2021/01/14 12:05:22;;;;;;;5.88;3.75;;;13.00;43.90;;;;;;5056564;28;20037;-67
2021/01/14 12:07:48;;;;;;;6.78;4.68;;;13.10;44.10;;;;;;5056562;28;20033;-67
2021/01/14 12:10:14;;;;;;;6.03;4.35;;;13.10;45.10;;;;;;5056496;28;20104;-67
2021/01/14 12:12:40;;;;;;;5.18;4.53;;;12.80;44.70;;;;;;5055451;28;20090;-67
2021/01/14 12:15:07;;;;;;;7.97;5.45;;;12.80;45.40;;;;;;5056389;28;20091;-67
2021/01/14 12:17:33;;;;;;;6.75;4.88;;;13.00;45.10;;;;;;5056783;28;20096;-67
2021/01/14 12:19:59;;;;;;;8.85;5.63;;;13.00;47.40;;;;;;5056676;28;20051;-67
2021/01/14 12:22:25;;;;;;;6.50;5.43;;;12.90;45.50;;;;;;5056398;28;20437;-67
2021/01/14 12:24:51;;;;;;;6.20;4.75;;;13.10;44.80;;;;;;5056320;28;20025;-67
2021/01/14 12:27:17;;;;;;;8.13;5.28;;;13.10;45.00;;;;;;5056362;28;20041;-67
2021/01/14 12:29:43;;;;;;;6.68;4.22;;;13.10;46.50;;;;;;5056694;28;20036;-67
2021/01/14 12:32:09;;;;;;;6.20;4.35;;;12.90;45.20;;;;;;5056590;28;20025;-67
2021/01/14 12:34:35;;;;;;;6.80;5.03;;;12.40;45.60;;;;;;5056167;28;20051;-67
2021/01/14 12:37:01;;;;;;;7.45;4.88;;;12.20;46.50;;;;;;5057932;28;20017;-67
2021/01/14 12:39:27;;;;;;;6.63;4.75;;;12.10;45.70;;;;;;5060104;28;20290;-67
2021/01/14 12:41:53;;;;;;;8.77;5.00;;;11.90;45.90;;;;;;5060289;28;20025;-67
2021/01/14 12:44:20;;;;;;;5.45;4.47;;;11.70;46.30;;;;;;5060150;28;20032;-67
2021/01/14 12:46:48;;;;;;;5.10;4.25;;;11.50;48.10;;;;;;5060312;28;20047;-67
2021/01/14 12:49:15;;;;;;;5.72;4.85;;;11.60;47.50;;;;;;5060436;28;20040;-67
2021/01/14 12:51:41;;;;;;;6.00;4.97;;;11.30;47.60;;;;;;5060205;28;20025;-67
2021/01/14 12:54:08;;;;;;;7.38;6.13;;;11.00;48.90;;;;;;5058936;28;20124;-68
2021/01/14 12:56:34;;;;;;;7.90;6.15;;;10.90;48.40;;;;;;5059179;28;20044;-67
2021/01/14 12:59:00;;;;;;;10.07;7.10;;;10.60;50.60;;;;;;5059926;28;20029;-67
2021/01/14 13:01:27;;;;;;;8.98;6.30;;;10.40;50.30;;;;;;5058849;28;20024;-67
2021/01/14 13:03:54;;;;;;;9.13;7.20;;;10.20;51.10;;;;;;5058817;28;20017;-67
2021/01/14 13:06:31;;;;;;;12.77;9.00;;;9.90;51.10;;;;;;5060068;28;20043;-68